الصفحة الرئيسية
METAR-TAF:

METAR-TAF

مطار :

مطار صوفيا

صوفيا, بلغاريا

دائرة عرض: 42-39N, خط طول: 023-23E, ارتفاع: 586 متر

مراقبة الطقس الحالي

تاريخ ووقت الإصدار 14 دقيقة قبل الساعة 20:00UTC
ريح 7 عقدة من الجنوب/الجنوب الغربي
درجة الحرارة 21°درجة مئوية
الرطوبة 64%
ضغط 1015 hPa
الرؤية 10 كم أو أكثر
الغيوم لا تقل 1500 م ولا وجود لمزنة ركامية السحاب الأسود

METAR: LBSF 162000Z 20007KT CAVOK 21/14 Q1015 NOSIG

زمن: 23:14 (20:14 UTC)

توقعات

تاريخ ووقت الإصدار 3ساعات و 14 دقيقة قبل الساعة 17:00UTC
التوقعات صالحة من16 الساعة 18 UTC إلى 17 الساعة 18 UTC
ريح 4 عقدةمن اتجاهات متغيرة
الرؤية 10 كم أو أكثر
الغيوم لا تقل 1500 م ولا وجود لمزنة ركامية السحاب الأسود
أصبح
من 17 الساعة 09 UTC إلى 17 الساعة 11 UTC
ريح 10 عقدة من الشرق/الشمال الشرقي
الرؤية 10 كم أو أكثر
غيوم متفرقة على ارتفاع 6000 قدم

TAF: LBSF 161700Z 1618/1718 VRB04KT CAVOK BECMG 1709/1711 06010KT 9999 SCT060

أرصاد الطقس والتوقعات من أكثر من 4000 مطار (تقارير الطقس للمطار METAR والتنبؤ بالطقس بالمطارTAF).

المحطات المتاحة هي النقط الصفراء والحمراء على الخريطة.

حرك المؤشر فوق النقطة لمعرفة اسم المحطة.

ثم انقر لمعرفة أرصاد وتوقعات الطقس.

لتغيير الخارطة: اضغط على الأزرار الخضراء مع رمز الصليب الأسود للتكبير. على الزر الأخضر مع شرطة للتصغير، أو على الأسهم الخضراء للخرائط المجاورة.


METAR-TAF: